sensor_id;sensor_type;location;lat;lon;timestamp;P1;durP1;ratioP1;P2;durP2;ratioP2
72286;SDS011;60221;45.696;16.076;2023-03-23T00:04:49;14.90;;;6.40;;
72286;SDS011;60221;45.696;16.076;2023-03-23T00:07:16;18.90;;;7.40;;
72286;SDS011;60221;45.696;16.076;2023-03-23T00:09:49;15.70;;;7.00;;
72286;SDS011;60221;45.696;16.076;2023-03-23T00:12:19;18.80;;;7.70;;
72286;SDS011;60221;45.696;16.076;2023-03-23T00:14:44;21.60;;;9.60;;
72286;SDS011;60221;45.696;16.076;2023-03-23T00:17:10;23.10;;;10.50;;
72286;SDS011;60221;45.696;16.076;2023-03-23T00:19:39;23.90;;;10.00;;
72286;SDS011;60221;45.696;16.076;2023-03-23T00:22:17;15.70;;;7.10;;
72286;SDS011;60221;45.696;16.076;2023-03-23T00:24:45;15.60;;;6.50;;
72286;SDS011;60221;45.696;16.076;2023-03-23T00:27:10;17.60;;;7.40;;
72286;SDS011;60221;45.696;16.076;2023-03-23T00:29:41;19.00;;;8.40;;
72286;SDS011;60221;45.696;16.076;2023-03-23T00:32:07;17.70;;;7.60;;
72286;SDS011;60221;45.696;16.076;2023-03-23T00:34:38;26.20;;;13.60;;
72286;SDS011;60221;45.696;16.076;2023-03-23T00:37:05;21.80;;;8.90;;
72286;SDS011;60221;45.696;16.076;2023-03-23T00:39:31;30.30;;;14.00;;
72286;SDS011;60221;45.696;16.076;2023-03-23T00:41:57;25.40;;;12.40;;
72286;SDS011;60221;45.696;16.076;2023-03-23T00:44:26;29.70;;;13.20;;
72286;SDS011;60221;45.696;16.076;2023-03-23T00:46:54;37.30;;;12.30;;
72286;SDS011;60221;45.696;16.076;2023-03-23T00:49:22;77.70;;;23.50;;
72286;SDS011;60221;45.696;16.076;2023-03-23T00:51:51;98.40;;;29.30;;
72286;SDS011;60221;45.696;16.076;2023-03-23T00:54:17;94.80;;;29.20;;
72286;SDS011;60221;45.696;16.076;2023-03-23T00:56:43;100.40;;;31.60;;
72286;SDS011;60221;45.696;16.076;2023-03-23T00:59:09;80.10;;;27.60;;
72286;SDS011;60221;45.696;16.076;2023-03-23T01:01:34;62.20;;;22.10;;
72286;SDS011;60221;45.696;16.076;2023-03-23T01:04:02;51.10;;;18.30;;
72286;SDS011;60221;45.696;16.076;2023-03-23T01:06:30;42.30;;;16.30;;
72286;SDS011;60221;45.696;16.076;2023-03-23T01:08:56;37.80;;;12.90;;
72286;SDS011;60221;45.696;16.076;2023-03-23T01:11:23;29.20;;;11.50;;
72286;SDS011;60221;45.696;16.076;2023-03-23T01:13:50;28.60;;;11.00;;
72286;SDS011;60221;45.696;16.076;2023-03-23T01:16:18;37.80;;;13.70;;
72286;SDS011;60221;45.696;16.076;2023-03-23T01:18:44;31.00;;;11.40;;
72286;SDS011;60221;45.696;16.076;2023-03-23T01:21:11;27.80;;;11.50;;
72286;SDS011;60221;45.696;16.076;2023-03-23T01:23:37;23.40;;;10.90;;
72286;SDS011;60221;45.696;16.076;2023-03-23T01:26:04;26.40;;;11.40;;
72286;SDS011;60221;45.696;16.076;2023-03-23T01:28:30;31.00;;;12.80;;
72286;SDS011;60221;45.696;16.076;2023-03-23T01:30:59;38.80;;;14.40;;
72286;SDS011;60221;45.696;16.076;2023-03-23T01:33:25;64.70;;;21.00;;
72286;SDS011;60221;45.696;16.076;2023-03-23T01:35:51;58.10;;;20.80;;
72286;SDS011;60221;45.696;16.076;2023-03-23T01:38:17;60.90;;;22.20;;
72286;SDS011;60221;45.696;16.076;2023-03-23T01:40:43;47.30;;;17.70;;
72286;SDS011;60221;45.696;16.076;2023-03-23T01:43:11;32.40;;;13.00;;
72286;SDS011;60221;45.696;16.076;2023-03-23T01:45:40;30.40;;;12.50;;
72286;SDS011;60221;45.696;16.076;2023-03-23T01:48:17;42.10;;;16.80;;
72286;SDS011;60221;45.696;16.076;2023-03-23T01:50:50;38.10;;;15.20;;
72286;SDS011;60221;45.696;16.076;2023-03-23T01:53:18;30.30;;;12.90;;
72286;SDS011;60221;45.696;16.076;2023-03-23T01:55:44;46.30;;;15.80;;
72286;SDS011;60221;45.696;16.076;2023-03-23T01:58:14;35.30;;;12.20;;
72286;SDS011;60221;45.696;16.076;2023-03-23T02:00:40;34.40;;;12.30;;
72286;SDS011;60221;45.696;16.076;2023-03-23T02:03:08;31.10;;;11.30;;
72286;SDS011;60221;45.696;16.076;2023-03-23T02:05:40;24.30;;;9.20;;
72286;SDS011;60221;45.696;16.076;2023-03-23T02:08:17;19.20;;;8.10;;
72286;SDS011;60221;45.696;16.076;2023-03-23T02:10:45;30.10;;;10.80;;
72286;SDS011;60221;45.696;16.076;2023-03-23T02:13:11;26.20;;;10.40;;
72286;SDS011;60221;45.696;16.076;2023-03-23T02:15:43;21.70;;;9.70;;
72286;SDS011;60221;45.696;16.076;2023-03-23T02:18:20;28.60;;;10.60;;
72286;SDS011;60221;45.696;16.076;2023-03-23T02:34:11;38.60;;;15.60;;
72286;SDS011;60221;45.696;16.076;2023-03-23T02:36:41;35.10;;;14.50;;
72286;SDS011;60221;45.696;16.076;2023-03-23T02:39:19;36.00;;;14.10;;
72286;SDS011;60221;45.696;16.076;2023-03-23T02:41:48;33.00;;;13.10;;
72286;SDS011;60221;45.696;16.076;2023-03-23T02:44:15;23.90;;;9.80;;
72286;SDS011;60221;45.696;16.076;2023-03-23T02:46:42;27.30;;;10.90;;
72286;SDS011;60221;45.696;16.076;2023-03-23T02:49:09;19.30;;;8.80;;
72286;SDS011;60221;45.696;16.076;2023-03-23T02:51:36;33.00;;;13.30;;
72286;SDS011;60221;45.696;16.076;2023-03-23T02:54:03;36.40;;;14.10;;
72286;SDS011;60221;45.696;16.076;2023-03-23T02:56:30;31.10;;;12.20;;
72286;SDS011;60221;45.696;16.076;2023-03-23T02:58:58;32.10;;;12.60;;
72286;SDS011;60221;45.696;16.076;2023-03-23T03:04:00;37.40;;;13.50;;
72286;SDS011;60221;45.696;16.076;2023-03-23T03:08:57;40.60;;;12.70;;
72286;SDS011;60221;45.696;16.076;2023-03-23T03:11:24;21.70;;;9.80;;
72286;SDS011;60221;45.696;16.076;2023-03-23T03:19:08;18.10;;;7.70;;
72286;SDS011;60221;45.696;16.076;2023-03-23T03:21:38;17.50;;;7.70;;
72286;SDS011;60221;45.696;16.076;2023-03-23T03:24:05;15.90;;;7.20;;
72286;SDS011;60221;45.696;16.076;2023-03-23T03:26:37;16.30;;;6.40;;
72286;SDS011;60221;45.696;16.076;2023-03-23T03:29:16;14.20;;;5.30;;
72286;SDS011;60221;45.696;16.076;2023-03-23T03:31:44;10.10;;;4.70;;
72286;SDS011;60221;45.696;16.076;2023-03-23T03:34:12;9.90;;;4.20;;
72286;SDS011;60221;45.696;16.076;2023-03-23T03:36:45;9.50;;;4.10;;
72286;SDS011;60221;45.696;16.076;2023-03-23T03:39:11;11.90;;;5.10;;
72286;SDS011;60221;45.696;16.076;2023-03-23T03:41:38;12.40;;;5.10;;
72286;SDS011;60221;45.696;16.076;2023-03-23T03:44:04;11.40;;;5.00;;
72286;SDS011;60221;45.696;16.076;2023-03-23T03:46:30;11.90;;;4.60;;
72286;SDS011;60221;45.696;16.076;2023-03-23T03:48:57;11.40;;;5.00;;
72286;SDS011;60221;45.696;16.076;2023-03-23T03:51:23;13.30;;;5.10;;
72286;SDS011;60221;45.696;16.076;2023-03-23T03:53:49;14.10;;;5.30;;
72286;SDS011;60221;45.696;16.076;2023-03-23T03:56:15;10.20;;;4.50;;
72286;SDS011;60221;45.696;16.076;2023-03-23T03:58:45;9.70;;;4.20;;
72286;SDS011;60221;45.696;16.076;2023-03-23T04:01:21;12.30;;;4.80;;
72286;SDS011;60221;45.696;16.076;2023-03-23T04:03:48;11.90;;;5.10;;
72286;SDS011;60221;45.696;16.076;2023-03-23T04:06:21;13.70;;;5.50;;
72286;SDS011;60221;45.696;16.076;2023-03-23T04:08:47;11.60;;;5.40;;
72286;SDS011;60221;45.696;16.076;2023-03-23T04:11:13;12.00;;;4.60;;
72286;SDS011;60221;45.696;16.076;2023-03-23T04:13:40;13.70;;;4.40;;
72286;SDS011;60221;45.696;16.076;2023-03-23T04:16:19;9.20;;;4.00;;
72286;SDS011;60221;45.696;16.076;2023-03-23T04:18:47;11.10;;;4.00;;
72286;SDS011;60221;45.696;16.076;2023-03-23T04:21:15;12.30;;;4.60;;
72286;SDS011;60221;45.696;16.076;2023-03-23T04:23:43;11.50;;;4.20;;
72286;SDS011;60221;45.696;16.076;2023-03-23T04:26:09;12.60;;;5.80;;
72286;SDS011;60221;45.696;16.076;2023-03-23T04:28:43;11.40;;;4.90;;
72286;SDS011;60221;45.696;16.076;2023-03-23T04:31:27;11.40;;;4.40;;
72286;SDS011;60221;45.696;16.076;2023-03-23T04:34:00;10.10;;;4.40;;
72286;SDS011;60221;45.696;16.076;2023-03-23T04:36:30;10.90;;;4.10;;
72286;SDS011;60221;45.696;16.076;2023-03-23T04:39:03;9.90;;;4.10;;
72286;SDS011;60221;45.696;16.076;2023-03-23T04:41:33;10.50;;;4.60;;
72286;SDS011;60221;45.696;16.076;2023-03-23T04:44:16;10.90;;;5.00;;
72286;SDS011;60221;45.696;16.076;2023-03-23T04:46:49;12.30;;;4.80;;
72286;SDS011;60221;45.696;16.076;2023-03-23T04:49:16;14.00;;;4.50;;
72286;SDS011;60221;45.696;16.076;2023-03-23T04:51:50;10.40;;;4.20;;
72286;SDS011;60221;45.696;16.076;2023-03-23T04:54:22;14.00;;;5.50;;
72286;SDS011;60221;45.696;16.076;2023-03-23T04:56:53;19.00;;;7.10;;
72286;SDS011;60221;45.696;16.076;2023-03-23T04:59:19;24.10;;;10.00;;
72286;SDS011;60221;45.696;16.076;2023-03-23T05:02:04;20.80;;;7.40;;
72286;SDS011;60221;45.696;16.076;2023-03-23T05:04:31;19.70;;;8.00;;
72286;SDS011;60221;45.696;16.076;2023-03-23T05:07:08;20.00;;;6.70;;
72286;SDS011;60221;45.696;16.076;2023-03-23T05:09:40;15.30;;;6.30;;
72286;SDS011;60221;45.696;16.076;2023-03-23T05:12:06;23.80;;;8.90;;
72286;SDS011;60221;45.696;16.076;2023-03-23T05:14:34;24.90;;;8.60;;
72286;SDS011;60221;45.696;16.076;2023-03-23T05:17:04;18.60;;;7.70;;
72286;SDS011;60221;45.696;16.076;2023-03-23T05:19:30;16.40;;;6.90;;
72286;SDS011;60221;45.696;16.076;2023-03-23T05:21:57;50.80;;;23.20;;
72286;SDS011;60221;45.696;16.076;2023-03-23T05:24:30;26.80;;;14.60;;
72286;SDS011;60221;45.696;16.076;2023-03-23T05:27:00;18.10;;;9.00;;
72286;SDS011;60221;45.696;16.076;2023-03-23T05:29:32;12.60;;;6.50;;
72286;SDS011;60221;45.696;16.076;2023-03-23T05:31:59;14.10;;;6.30;;
72286;SDS011;60221;45.696;16.076;2023-03-23T05:34:26;11.60;;;5.90;;
72286;SDS011;60221;45.696;16.076;2023-03-23T05:36:57;10.70;;;5.20;;
72286;SDS011;60221;45.696;16.076;2023-03-23T05:39:32;13.10;;;6.10;;
72286;SDS011;60221;45.696;16.076;2023-03-23T05:42:13;15.30;;;6.40;;
72286;SDS011;60221;45.696;16.076;2023-03-23T05:44:44;14.30;;;6.90;;
72286;SDS011;60221;45.696;16.076;2023-03-23T05:47:10;27.10;;;12.40;;
72286;SDS011;60221;45.696;16.076;2023-03-23T05:49:38;31.90;;;13.50;;
72286;SDS011;60221;45.696;16.076;2023-03-23T05:52:04;38.80;;;16.90;;
72286;SDS011;60221;45.696;16.076;2023-03-23T05:54:31;20.80;;;9.90;;
72286;SDS011;60221;45.696;16.076;2023-03-23T05:56:57;19.90;;;10.00;;
72286;SDS011;60221;45.696;16.076;2023-03-23T05:59:52;14.90;;;7.90;;
72286;SDS011;60221;45.696;16.076;2023-03-23T06:02:21;18.30;;;8.70;;
72286;SDS011;60221;45.696;16.076;2023-03-23T06:04:49;16.10;;;8.70;;
72286;SDS011;60221;45.696;16.076;2023-03-23T06:07:20;18.10;;;9.40;;
72286;SDS011;60221;45.696;16.076;2023-03-23T06:09:52;21.50;;;10.70;;
72286;SDS011;60221;45.696;16.076;2023-03-23T06:12:21;19.10;;;10.80;;
72286;SDS011;60221;45.696;16.076;2023-03-23T06:15:08;22.40;;;11.30;;
72286;SDS011;60221;45.696;16.076;2023-03-23T06:18:00;20.70;;;11.70;;
72286;SDS011;60221;45.696;16.076;2023-03-23T06:20:32;22.40;;;11.90;;
72286;SDS011;60221;45.696;16.076;2023-03-23T06:23:00;22.20;;;13.40;;
72286;SDS011;60221;45.696;16.076;2023-03-23T06:25:31;22.60;;;14.10;;
72286;SDS011;60221;45.696;16.076;2023-03-23T06:27:57;29.50;;;16.40;;
72286;SDS011;60221;45.696;16.076;2023-03-23T06:30:24;23.90;;;14.40;;
72286;SDS011;60221;45.696;16.076;2023-03-23T06:32:50;24.80;;;14.60;;
72286;SDS011;60221;45.696;16.076;2023-03-23T06:35:24;25.30;;;14.20;;
72286;SDS011;60221;45.696;16.076;2023-03-23T06:38:17;52.20;;;33.60;;
72286;SDS011;60221;45.696;16.076;2023-03-23T06:40:48;95.80;;;70.40;;
72286;SDS011;60221;45.696;16.076;2023-03-23T06:43:14;43.40;;;30.30;;
72286;SDS011;60221;45.696;16.076;2023-03-23T06:45:52;38.00;;;26.20;;
72286;SDS011;60221;45.696;16.076;2023-03-23T06:48:29;28.80;;;18.80;;
72286;SDS011;60221;45.696;16.076;2023-03-23T06:50:55;32.70;;;19.40;;
72286;SDS011;60221;45.696;16.076;2023-03-23T06:53:22;28.80;;;18.20;;
72286;SDS011;60221;45.696;16.076;2023-03-23T06:55:48;30.50;;;18.50;;
72286;SDS011;60221;45.696;16.076;2023-03-23T06:58:14;27.30;;;18.90;;
72286;SDS011;60221;45.696;16.076;2023-03-23T07:00:40;27.10;;;16.40;;
72286;SDS011;60221;45.696;16.076;2023-03-23T07:03:08;25.70;;;16.20;;
72286;SDS011;60221;45.696;16.076;2023-03-23T07:05:35;28.90;;;18.30;;
72286;SDS011;60221;45.696;16.076;2023-03-23T07:08:02;24.50;;;15.30;;
72286;SDS011;60221;45.696;16.076;2023-03-23T07:10:40;22.40;;;13.30;;
72286;SDS011;60221;45.696;16.076;2023-03-23T07:13:06;24.50;;;15.60;;
72286;SDS011;60221;45.696;16.076;2023-03-23T07:15:41;28.50;;;17.10;;
72286;SDS011;60221;45.696;16.076;2023-03-23T07:18:07;22.70;;;14.60;;
72286;SDS011;60221;45.696;16.076;2023-03-23T07:20:39;23.90;;;15.30;;
72286;SDS011;60221;45.696;16.076;2023-03-23T07:23:04;23.90;;;13.90;;
72286;SDS011;60221;45.696;16.076;2023-03-23T07:25:40;21.20;;;12.00;;
72286;SDS011;60221;45.696;16.076;2023-03-23T07:28:08;30.70;;;19.10;;
72286;SDS011;60221;45.696;16.076;2023-03-23T07:30:34;24.60;;;15.00;;
72286;SDS011;60221;45.696;16.076;2023-03-23T07:33:03;24.00;;;15.30;;
72286;SDS011;60221;45.696;16.076;2023-03-23T07:35:29;17.60;;;10.30;;
72286;SDS011;60221;45.696;16.076;2023-03-23T07:37:59;17.50;;;11.10;;
72286;SDS011;60221;45.696;16.076;2023-03-23T07:40:25;75.20;;;34.90;;
72286;SDS011;60221;45.696;16.076;2023-03-23T07:42:54;183.80;;;74.20;;
72286;SDS011;60221;45.696;16.076;2023-03-23T07:45:53;160.20;;;57.40;;
72286;SDS011;60221;45.696;16.076;2023-03-23T07:48:21;52.00;;;22.10;;
72286;SDS011;60221;45.696;16.076;2023-03-23T07:50:47;74.70;;;42.80;;
72286;SDS011;60221;45.696;16.076;2023-03-23T07:53:14;58.10;;;36.00;;
72286;SDS011;60221;45.696;16.076;2023-03-23T07:55:40;60.20;;;41.60;;
72286;SDS011;60221;45.696;16.076;2023-03-23T07:58:29;109.10;;;97.60;;
72286;SDS011;60221;45.696;16.076;2023-03-23T08:00:56;30.20;;;24.10;;
72286;SDS011;60221;45.696;16.076;2023-03-23T08:03:26;19.80;;;14.90;;
72286;SDS011;60221;45.696;16.076;2023-03-23T08:06:17;18.50;;;10.70;;
72286;SDS011;60221;45.696;16.076;2023-03-23T08:09:11;28.60;;;12.60;;
72286;SDS011;60221;45.696;16.076;2023-03-23T08:11:57;31.70;;;19.40;;
72286;SDS011;60221;45.696;16.076;2023-03-23T08:14:44;141.40;;;118.50;;
72286;SDS011;60221;45.696;16.076;2023-03-23T08:17:34;34.40;;;26.70;;
72286;SDS011;60221;45.696;16.076;2023-03-23T08:20:35;18.00;;;11.20;;
72286;SDS011;60221;45.696;16.076;2023-03-23T08:23:20;18.60;;;10.40;;
72286;SDS011;60221;45.696;16.076;2023-03-23T08:26:05;14.60;;;8.60;;
72286;SDS011;60221;45.696;16.076;2023-03-23T08:28:52;13.40;;;8.40;;
72286;SDS011;60221;45.696;16.076;2023-03-23T08:31:44;14.00;;;7.90;;
72286;SDS011;60221;45.696;16.076;2023-03-23T08:34:36;12.60;;;6.70;;
72286;SDS011;60221;45.696;16.076;2023-03-23T08:37:33;12.80;;;6.90;;
72286;SDS011;60221;45.696;16.076;2023-03-23T08:40:16;10.70;;;5.90;;
72286;SDS011;60221;45.696;16.076;2023-03-23T08:43:05;9.50;;;4.90;;
72286;SDS011;60221;45.696;16.076;2023-03-23T08:45:49;10.40;;;5.20;;
72286;SDS011;60221;45.696;16.076;2023-03-23T08:48:35;8.90;;;5.10;;
72286;SDS011;60221;45.696;16.076;2023-03-23T08:51:19;9.10;;;4.50;;
72286;SDS011;60221;45.696;16.076;2023-03-23T08:54:06;8.80;;;5.10;;
72286;SDS011;60221;45.696;16.076;2023-03-23T08:57:02;12.90;;;5.80;;
72286;SDS011;60221;45.696;16.076;2023-03-23T08:59:54;8.50;;;4.30;;
72286;SDS011;60221;45.696;16.076;2023-03-23T09:02:34;7.50;;;3.90;;
72286;SDS011;60221;45.696;16.076;2023-03-23T09:05:21;7.80;;;3.70;;
72286;SDS011;60221;45.696;16.076;2023-03-23T09:08:15;9.10;;;4.20;;
72286;SDS011;60221;45.696;16.076;2023-03-23T09:10:41;9.90;;;5.70;;
72286;SDS011;60221;45.696;16.076;2023-03-23T09:13:06;8.20;;;3.90;;
72286;SDS011;60221;45.696;16.076;2023-03-23T09:15:32;7.80;;;4.20;;
72286;SDS011;60221;45.696;16.076;2023-03-23T09:17:58;8.80;;;4.80;;
72286;SDS011;60221;45.696;16.076;2023-03-23T09:20:25;11.90;;;5.20;;
72286;SDS011;60221;45.696;16.076;2023-03-23T09:22:51;8.80;;;4.20;;
72286;SDS011;60221;45.696;16.076;2023-03-23T09:25:18;8.40;;;4.70;;
72286;SDS011;60221;45.696;16.076;2023-03-23T09:27:48;7.00;;;3.40;;
72286;SDS011;60221;45.696;16.076;2023-03-23T09:30:17;7.40;;;3.10;;
72286;SDS011;60221;45.696;16.076;2023-03-23T09:32:44;12.50;;;5.10;;
72286;SDS011;60221;45.696;16.076;2023-03-23T09:35:11;6.60;;;2.00;;
72286;SDS011;60221;45.696;16.076;2023-03-23T09:37:40;6.10;;;1.40;;
72286;SDS011;60221;45.696;16.076;2023-03-23T09:40:07;4.80;;;1.40;;
72286;SDS011;60221;45.696;16.076;2023-03-23T09:50:30;2.90;;;0.80;;
72286;SDS011;60221;45.696;16.076;2023-03-23T09:53:26;3.20;;;0.70;;
72286;SDS011;60221;45.696;16.076;2023-03-23T09:55:55;4.20;;;1.20;;
72286;SDS011;60221;45.696;16.076;2023-03-23T09:58:30;3.30;;;0.80;;
72286;SDS011;60221;45.696;16.076;2023-03-23T10:01:02;4.40;;;0.80;;
72286;SDS011;60221;45.696;16.076;2023-03-23T10:03:33;4.10;;;0.90;;
72286;SDS011;60221;45.696;16.076;2023-03-23T10:06:00;2.80;;;0.60;;
72286;SDS011;60221;45.696;16.076;2023-03-23T10:08:26;3.40;;;0.70;;
72286;SDS011;60221;45.696;16.076;2023-03-23T10:11:03;3.50;;;0.90;;
72286;SDS011;60221;45.696;16.076;2023-03-23T10:15:58;4.50;;;0.90;;
72286;SDS011;60221;45.696;16.076;2023-03-23T10:18:39;4.20;;;1.10;;
72286;SDS011;60221;45.696;16.076;2023-03-23T10:21:07;3.60;;;0.80;;
72286;SDS011;60221;45.696;16.076;2023-03-23T10:23:39;4.40;;;1.30;;
72286;SDS011;60221;45.696;16.076;2023-03-23T10:28:42;3.30;;;0.90;;
72286;SDS011;60221;45.696;16.076;2023-03-23T10:31:55;4.40;;;1.50;;
72286;SDS011;60221;45.696;16.076;2023-03-23T10:33:56;5.30;;;1.80;;
72286;SDS011;60221;45.696;16.076;2023-03-23T10:39:06;8.70;;;4.00;;
72286;SDS011;60221;45.696;16.076;2023-03-23T10:41:35;6.40;;;3.20;;
72286;SDS011;60221;45.696;16.076;2023-03-23T10:44:01;6.80;;;2.70;;
72286;SDS011;60221;45.696;16.076;2023-03-23T10:49:19;7.80;;;2.60;;
72286;SDS011;60221;45.696;16.076;2023-03-23T10:51:49;8.40;;;2.70;;
72286;SDS011;60221;45.696;16.076;2023-03-23T10:54:25;6.90;;;3.40;;
72286;SDS011;60221;45.696;16.076;2023-03-23T10:56:51;7.80;;;3.30;;
72286;SDS011;60221;45.696;16.076;2023-03-23T10:59:25;7.90;;;3.30;;
72286;SDS011;60221;45.696;16.076;2023-03-23T11:01:53;6.60;;;3.10;;
72286;SDS011;60221;45.696;16.076;2023-03-23T11:04:20;11.30;;;3.90;;
72286;SDS011;60221;45.696;16.076;2023-03-23T11:06:49;8.70;;;4.40;;
72286;SDS011;60221;45.696;16.076;2023-03-23T11:09:18;8.00;;;3.50;;
72286;SDS011;60221;45.696;16.076;2023-03-23T11:11:49;8.60;;;4.60;;
72286;SDS011;60221;45.696;16.076;2023-03-23T11:14:16;8.40;;;3.60;;
72286;SDS011;60221;45.696;16.076;2023-03-23T11:16:45;6.70;;;3.20;;
72286;SDS011;60221;45.696;16.076;2023-03-23T11:19:12;7.40;;;3.20;;
72286;SDS011;60221;45.696;16.076;2023-03-23T11:21:39;8.10;;;3.80;;
72286;SDS011;60221;45.696;16.076;2023-03-23T11:24:05;7.70;;;3.50;;
72286;SDS011;60221;45.696;16.076;2023-03-23T11:26:32;6.90;;;3.70;;
72286;SDS011;60221;45.696;16.076;2023-03-23T11:31:35;7.20;;;3.50;;
72286;SDS011;60221;45.696;16.076;2023-03-23T11:34:09;6.70;;;3.20;;
72286;SDS011;60221;45.696;16.076;2023-03-23T11:36:36;7.70;;;3.00;;
72286;SDS011;60221;45.696;16.076;2023-03-23T11:39:03;6.70;;;2.50;;
72286;SDS011;60221;45.696;16.076;2023-03-23T11:41:43;6.80;;;2.80;;
72286;SDS011;60221;45.696;16.076;2023-03-23T11:44:10;5.90;;;2.40;;
72286;SDS011;60221;45.696;16.076;2023-03-23T11:54:43;5.90;;;2.00;;
72286;SDS011;60221;45.696;16.076;2023-03-23T11:57:11;4.50;;;2.00;;
72286;SDS011;60221;45.696;16.076;2023-03-23T11:59:39;4.60;;;1.90;;
72286;SDS011;60221;45.696;16.076;2023-03-23T12:02:12;4.00;;;1.80;;
72286;SDS011;60221;45.696;16.076;2023-03-23T12:07:39;6.80;;;2.10;;
72286;SDS011;60221;45.696;16.076;2023-03-23T12:15:18;5.60;;;1.80;;
72286;SDS011;60221;45.696;16.076;2023-03-23T12:31:04;5.30;;;2.10;;
72286;SDS011;60221;45.696;16.076;2023-03-23T12:36:22;5.60;;;2.20;;
72286;SDS011;60221;45.696;16.076;2023-03-23T12:38:53;8.20;;;3.20;;
72286;SDS011;60221;45.696;16.076;2023-03-23T12:41:41;7.20;;;3.20;;
72286;SDS011;60221;45.696;16.076;2023-03-23T12:44:10;4.90;;;1.90;;
72286;SDS011;60221;45.696;16.076;2023-03-23T12:46:56;8.30;;;3.40;;
72286;SDS011;60221;45.696;16.076;2023-03-23T12:51:57;4.60;;;1.40;;
72286;SDS011;60221;45.696;16.076;2023-03-23T12:54:36;4.90;;;1.90;;
72286;SDS011;60221;45.696;16.076;2023-03-23T12:57:18;4.10;;;1.10;;
72286;SDS011;60221;45.696;16.076;2023-03-23T12:59:53;6.10;;;1.60;;
72286;SDS011;60221;45.696;16.076;2023-03-23T13:02:30;6.30;;;1.80;;
72286;SDS011;60221;45.696;16.076;2023-03-23T13:05:44;4.00;;;1.30;;
72286;SDS011;60221;45.696;16.076;2023-03-23T13:07:43;4.30;;;1.40;;
72286;SDS011;60221;45.696;16.076;2023-03-23T13:10:25;3.30;;;1.40;;
72286;SDS011;60221;45.696;16.076;2023-03-23T13:12:52;4.00;;;1.10;;
72286;SDS011;60221;45.696;16.076;2023-03-23T13:24:03;3.90;;;1.30;;
72286;SDS011;60221;45.696;16.076;2023-03-23T13:28:25;3.70;;;1.40;;
72286;SDS011;60221;45.696;16.076;2023-03-23T13:31:02;4.30;;;1.40;;
72286;SDS011;60221;45.696;16.076;2023-03-23T13:33:30;3.10;;;1.30;;
72286;SDS011;60221;45.696;16.076;2023-03-23T13:35:56;4.00;;;1.40;;
72286;SDS011;60221;45.696;16.076;2023-03-23T13:38:28;4.10;;;1.00;;
72286;SDS011;60221;45.696;16.076;2023-03-23T13:40:54;3.30;;;1.10;;
72286;SDS011;60221;45.696;16.076;2023-03-23T13:43:25;3.40;;;1.30;;
72286;SDS011;60221;45.696;16.076;2023-03-23T13:45:51;3.00;;;1.30;;
72286;SDS011;60221;45.696;16.076;2023-03-23T13:48:22;3.30;;;1.10;;
72286;SDS011;60221;45.696;16.076;2023-03-23T13:50:58;4.60;;;1.20;;
72286;SDS011;60221;45.696;16.076;2023-03-23T13:53:29;3.40;;;1.30;;
72286;SDS011;60221;45.696;16.076;2023-03-23T13:56:05;3.80;;;1.10;;
72286;SDS011;60221;45.696;16.076;2023-03-23T13:58:31;5.80;;;1.70;;
72286;SDS011;60221;45.696;16.076;2023-03-23T14:01:01;4.70;;;1.70;;
72286;SDS011;60221;45.696;16.076;2023-03-23T14:10:59;3.30;;;1.20;;
72286;SDS011;60221;45.696;16.076;2023-03-23T14:16:01;3.00;;;1.00;;
72286;SDS011;60221;45.696;16.076;2023-03-23T14:18:34;2.90;;;1.10;;
72286;SDS011;60221;45.696;16.076;2023-03-23T14:21:00;5.60;;;1.20;;
72286;SDS011;60221;45.696;16.076;2023-03-23T14:23:27;118.00;;;65.70;;
72286;SDS011;60221;45.696;16.076;2023-03-23T14:26:00;22.40;;;16.30;;
72286;SDS011;60221;45.696;16.076;2023-03-23T14:28:36;5.80;;;3.00;;
72286;SDS011;60221;45.696;16.076;2023-03-23T14:31:02;6.50;;;2.80;;
72286;SDS011;60221;45.696;16.076;2023-03-23T14:33:28;4.00;;;1.70;;
72286;SDS011;60221;45.696;16.076;2023-03-23T14:35:54;5.00;;;2.10;;
72286;SDS011;60221;45.696;16.076;2023-03-23T14:38:22;6.60;;;2.00;;
72286;SDS011;60221;45.696;16.076;2023-03-23T14:40:50;5.40;;;2.50;;
72286;SDS011;60221;45.696;16.076;2023-03-23T14:43:17;5.50;;;2.20;;
72286;SDS011;60221;45.696;16.076;2023-03-23T14:45:45;4.90;;;1.70;;
72286;SDS011;60221;45.696;16.076;2023-03-23T14:48:13;4.50;;;1.60;;
72286;SDS011;60221;45.696;16.076;2023-03-23T14:50:41;4.30;;;1.30;;
72286;SDS011;60221;45.696;16.076;2023-03-23T14:53:22;4.90;;;1.50;;
72286;SDS011;60221;45.696;16.076;2023-03-23T14:55:49;4.10;;;1.40;;
72286;SDS011;60221;45.696;16.076;2023-03-23T14:58:16;4.50;;;1.40;;
72286;SDS011;60221;45.696;16.076;2023-03-23T15:00:57;4.20;;;1.10;;
72286;SDS011;60221;45.696;16.076;2023-03-23T15:03:24;5.50;;;0.80;;
72286;SDS011;60221;45.696;16.076;2023-03-23T15:05:57;6.00;;;1.60;;
72286;SDS011;60221;45.696;16.076;2023-03-23T15:08:24;5.50;;;1.40;;
72286;SDS011;60221;45.696;16.076;2023-03-23T15:11:06;4.10;;;1.50;;
72286;SDS011;60221;45.696;16.076;2023-03-23T15:13:34;5.00;;;2.00;;
72286;SDS011;60221;45.696;16.076;2023-03-23T15:16:07;4.00;;;1.70;;
72286;SDS011;60221;45.696;16.076;2023-03-23T15:18:37;4.80;;;1.40;;
72286;SDS011;60221;45.696;16.076;2023-03-23T15:21:21;2.50;;;0.90;;
72286;SDS011;60221;45.696;16.076;2023-03-23T15:23:47;3.30;;;1.00;;
72286;SDS011;60221;45.696;16.076;2023-03-23T15:26:24;2.50;;;0.70;;
72286;SDS011;60221;45.696;16.076;2023-03-23T15:28:49;4.00;;;0.90;;
72286;SDS011;60221;45.696;16.076;2023-03-23T15:31:15;4.50;;;1.40;;
72286;SDS011;60221;45.696;16.076;2023-03-23T15:33:41;4.00;;;1.10;;
72286;SDS011;60221;45.696;16.076;2023-03-23T15:36:08;3.30;;;0.90;;
72286;SDS011;60221;45.696;16.076;2023-03-23T15:38:35;4.00;;;0.90;;
72286;SDS011;60221;45.696;16.076;2023-03-23T15:41:02;4.90;;;1.10;;
72286;SDS011;60221;45.696;16.076;2023-03-23T15:43:32;2.90;;;0.70;;
72286;SDS011;60221;45.696;16.076;2023-03-23T15:46:19;3.70;;;1.00;;
72286;SDS011;60221;45.696;16.076;2023-03-23T15:48:47;3.40;;;1.10;;
72286;SDS011;60221;45.696;16.076;2023-03-23T15:51:13;3.60;;;0.80;;
72286;SDS011;60221;45.696;16.076;2023-03-23T15:53:40;3.20;;;0.90;;
72286;SDS011;60221;45.696;16.076;2023-03-23T15:56:07;4.00;;;1.10;;
72286;SDS011;60221;45.696;16.076;2023-03-23T15:58:33;4.70;;;1.20;;
72286;SDS011;60221;45.696;16.076;2023-03-23T16:01:05;4.10;;;0.90;;
72286;SDS011;60221;45.696;16.076;2023-03-23T16:03:36;3.60;;;1.10;;
72286;SDS011;60221;45.696;16.076;2023-03-23T16:06:04;3.90;;;1.30;;
72286;SDS011;60221;45.696;16.076;2023-03-23T16:08:31;6.90;;;2.90;;
72286;SDS011;60221;45.696;16.076;2023-03-23T16:10:58;10.00;;;4.80;;
72286;SDS011;60221;45.696;16.076;2023-03-23T16:13:25;9.50;;;5.70;;
72286;SDS011;60221;45.696;16.076;2023-03-23T16:15:53;6.20;;;2.70;;
72286;SDS011;60221;45.696;16.076;2023-03-23T16:18:21;3.80;;;1.90;;
72286;SDS011;60221;45.696;16.076;2023-03-23T16:20:48;7.80;;;1.70;;
72286;SDS011;60221;45.696;16.076;2023-03-23T16:23:15;5.00;;;1.90;;
72286;SDS011;60221;45.696;16.076;2023-03-23T16:25:42;7.40;;;4.30;;
72286;SDS011;60221;45.696;16.076;2023-03-23T16:28:12;5.50;;;2.50;;
72286;SDS011;60221;45.696;16.076;2023-03-23T16:30:40;5.30;;;2.50;;